Time;durP1;ratioP1;P1;durP2;ratioP2;P2;SDS_P1;SDS_P2;PMS_P1;PMS_P2;Temp;Humidity;BMP_temperature;BMP_pressure;BME280_temperature;BME280_humidity;BME280_pressure;Samples;Min_cycle;Max_cycle;Signal;HPM_P1;HPM_P2
2023/10/02 00:03:29;;;;;;;12.63;9.32;;;;;;;17.44;nan;95654.44;5038082;28;20230;-61
2023/10/02 00:05:56;;;;;;;10.05;9.05;;;;;;;17.50;nan;95656.69;5030723;28;20199;-61
2023/10/02 00:08:39;;;;;;;10.32;8.93;;;;;;;17.62;nan;95650.91;5032228;28;20284;-62
2023/10/02 00:16:40;;;;;;;9.77;8.82;;;;;;;17.68;nan;95655.75;5033740;28;20268;-61
2023/10/02 00:19:18;;;;;;;10.05;8.90;;;;;;;17.60;nan;95649.31;5033252;28;20219;-61
2023/10/02 00:21:46;;;;;;;8.90;8.13;;;;;;;17.67;nan;95643.81;5033895;28;20230;-63
2023/10/02 00:24:14;;;;;;;9.70;8.55;;;;;;;17.77;nan;95651.06;5036945;28;20851;-62
2023/10/02 00:26:42;;;;;;;8.65;7.60;;;;;;;17.72;nan;95640.19;5035427;28;20237;-62
2023/10/02 00:29:09;;;;;;;9.60;8.63;;;;;;;17.78;nan;95642.44;5035551;28;20226;-62
2023/10/02 00:31:38;;;;;;;9.25;7.95;;;;;;;17.75;nan;95652.88;5029998;28;20806;-62
2023/10/02 00:34:06;;;;;;;9.75;7.70;;;;;;;17.82;nan;95649.91;5033904;28;20199;-62
2023/10/02 00:36:33;;;;;;;9.77;8.80;;;;;;;17.83;nan;95643.84;5033047;28;20260;-61
2023/10/02 00:39:24;;;;;;;13.38;7.18;;;;;;;17.90;nan;95644.34;5034732;28;20204;-61
2023/10/02 00:47:16;;;;;;;8.07;7.15;;;;;;;17.98;nan;95642.22;5033278;28;20207;-61
2023/10/02 00:49:42;;;;;;;7.20;6.70;;;;;;;17.99;nan;95637.00;5036281;28;20246;-60
2023/10/02 00:52:09;;;;;;;7.72;7.00;;;;;;;17.81;nan;95647.44;5035414;28;20247;-61
2023/10/02 00:54:36;;;;;;;6.45;6.03;;;;;;;17.89;nan;95645.25;5034947;28;20258;-61
2023/10/02 00:57:16;;;;;;;7.47;6.80;;;;;;;17.72;nan;95641.03;5035832;28;20210;-61
2023/10/02 00:59:45;;;;;;;12.30;7.18;;;;;;;17.73;nan;95641.84;5042407;28;21851;-62
2023/10/02 01:02:17;;;;;;;7.05;6.53;;;;;;;17.79;nan;95636.41;5042958;28;20226;-62
2023/10/02 01:04:44;;;;;;;7.60;6.82;;;;;;;17.89;nan;95637.56;5035816;28;20253;-61
2023/10/02 01:07:15;;;;;;;7.13;6.50;;;;;;;17.91;nan;95635.72;5037575;28;20227;-60
2023/10/02 01:10:06;;;;;;;7.95;7.22;;;;;;;17.82;nan;95631.06;5035417;28;20302;-61
2023/10/02 01:12:38;;;;;;;8.05;7.20;;;;;;;17.84;nan;95644.66;5041858;28;20749;-61
2023/10/02 01:15:11;;;;;;;6.75;6.15;;;;;;;17.71;nan;95641.09;5038912;28;20205;-61
2023/10/02 01:17:39;;;;;;;11.32;6.95;;;;;;;17.67;nan;95637.84;5036784;28;20200;-61
2023/10/02 01:20:13;;;;;;;6.70;6.20;;;;;;;17.61;nan;95638.97;5037814;28;20207;-61
2023/10/02 01:22:43;;;;;;;10.68;6.50;;;;;;;17.60;nan;95646.75;5037401;28;20201;-62
2023/10/02 01:25:14;;;;;;;7.25;6.60;;;;;;;17.42;nan;95640.00;5036215;28;20294;-61
2023/10/02 01:27:42;;;;;;;8.45;6.38;;;;;;;17.46;nan;95646.66;5040853;28;20727;-61
2023/10/02 01:30:16;;;;;;;6.13;5.72;;;;;;;17.37;nan;95645.38;5045200;28;20669;-61
2023/10/02 01:33:06;;;;;;;10.05;6.32;;;;;;;17.42;nan;95648.53;5043651;28;20286;-61
2023/10/02 01:35:36;;;;;;;6.97;5.78;;;;;;;17.33;nan;95643.84;5036390;28;20226;-61
2023/10/02 01:38:12;;;;;;;7.28;6.78;;;;;;;17.36;nan;95643.69;5038915;28;20238;-62
2023/10/02 01:40:43;;;;;;;6.43;5.93;;;;;;;17.48;nan;95652.53;5039057;28;20200;-61
2023/10/02 01:43:16;;;;;;;8.50;6.32;;;;;;;17.47;nan;95650.88;5035842;28;20254;-61
2023/10/02 01:45:43;;;;;;;8.13;7.38;;;;;;;17.40;nan;95657.22;5040810;28;20199;-61
2023/10/02 01:48:13;;;;;;;6.72;6.22;;;;;;;17.15;nan;95655.06;5040866;28;20219;-62
2023/10/02 01:50:42;;;;;;;7.97;6.28;;;;;;;17.26;nan;95647.66;5042730;28;20210;-61
2023/10/02 01:53:26;;;;;;;7.25;6.57;;;;;;;17.25;nan;95653.72;5039034;28;20286;-61
2023/10/02 01:56:10;;;;;;;9.07;7.18;;;;;;;17.27;nan;95659.59;5041483;28;20240;-62
2023/10/02 01:58:39;;;;;;;8.63;6.65;;;;;;;17.12;nan;95657.78;5035463;28;20205;-61
2023/10/02 02:01:06;;;;;;;8.77;6.10;;;;;;;17.22;nan;95661.56;5037683;28;20195;-61
2023/10/02 02:03:33;;;;;;;8.07;6.78;;;;;;;17.15;nan;95655.88;5039967;28;20364;-60
2023/10/02 02:06:08;;;;;;;8.23;5.97;;;;;;;17.25;nan;95648.56;5037298;28;20207;-61
2023/10/02 02:08:36;;;;;;;7.00;6.40;;;;;;;17.08;nan;95651.13;5036939;28;20219;-61
2023/10/02 02:11:16;;;;;;;21.52;6.65;;;;;;;17.05;nan;95651.31;5038293;28;20208;-61
2023/10/02 02:13:47;;;;;;;7.15;6.45;;;;;;;17.05;nan;95661.56;5037311;28;20199;-60
2023/10/02 02:16:16;;;;;;;7.65;6.40;;;;;;;17.04;nan;95662.47;5035885;28;20259;-62
2023/10/02 02:18:45;;;;;;;10.48;6.55;;;;;;;16.87;nan;95658.97;5039147;28;20202;-60
2023/10/02 02:21:17;;;;;;;6.93;6.28;;;;;;;16.96;nan;95655.97;5039973;28;20583;-61
2023/10/02 02:23:45;;;;;;;8.98;6.25;;;;;;;16.82;nan;95668.66;5040977;28;20249;-61
2023/10/02 02:26:21;;;;;;;6.82;6.20;;;;;;;16.81;nan;95659.31;5039752;28;20199;-62
2023/10/02 02:28:51;;;;;;;8.27;6.18;;;;;;;16.74;nan;95654.53;5036235;28;20219;-61
2023/10/02 02:31:30;;;;;;;7.43;6.47;;;;;;;16.64;nan;95661.84;5041948;28;20234;-62
2023/10/02 02:34:02;;;;;;;8.20;5.65;;;;;;;16.73;nan;95666.53;5035924;28;20199;-61
2023/10/02 02:36:34;;;;;;;6.97;6.25;;;;;;;16.70;nan;95669.25;5035506;28;20199;-61
2023/10/02 02:42:08;;;;;;;6.38;5.88;;;;;;;16.41;nan;95669.75;5034396;28;20560;-61
2023/10/02 02:44:43;;;;;;;6.50;5.90;;;;;;;16.41;nan;95673.16;5042806;28;20645;-61
2023/10/02 02:47:10;;;;;;;7.10;5.95;;;;;;;16.47;nan;95672.03;5032822;28;20198;-61
2023/10/02 02:49:48;;;;;;;8.82;5.65;;;;;;;16.42;nan;95674.81;5040882;28;20652;-60
2023/10/02 02:52:17;;;;;;;8.50;5.50;;;;;;;16.45;nan;95669.53;5034288;28;20213;-61
2023/10/02 02:54:47;;;;;;;6.63;5.60;;;;;;;16.38;nan;95669.88;5036999;28;20285;-60
2023/10/02 02:57:18;;;;;;;10.02;6.18;;;;;;;16.20;nan;95669.84;5034716;28;20202;-60
2023/10/02 02:59:45;;;;;;;7.03;5.65;;;;;;;16.36;nan;95675.09;5040834;28;20206;-61
2023/10/02 03:02:21;;;;;;;6.05;5.50;;;;;;;16.37;nan;95666.50;5036290;28;20234;-60
2023/10/02 03:04:50;;;;;;;8.60;5.53;;;;;;;16.41;nan;95667.19;5037983;28;20190;-62
2023/10/02 03:07:29;;;;;;;8.18;4.68;;;;;;;16.39;nan;95643.34;5040922;28;20644;-61
2023/10/02 03:09:57;;;;;;;7.05;4.75;;;;;;;16.41;nan;95662.88;5035569;28;20742;-61
2023/10/02 03:12:25;;;;;;;7.93;4.57;;;;;;;16.25;nan;95665.34;5031997;28;20326;-61
2023/10/02 03:14:54;;;;;;;7.22;5.38;;;;;;;16.33;nan;95668.38;5034822;28;20203;-61
2023/10/02 03:17:28;;;;;;;5.93;5.13;;;;;;;16.33;nan;95665.00;5035293;28;20210;-61
2023/10/02 03:19:55;;;;;;;6.53;5.05;;;;;;;16.30;nan;95668.53;5033001;28;20334;-62
2023/10/02 03:22:24;;;;;;;10.75;4.57;;;;;;;16.32;nan;95669.28;5032546;28;20684;-61
2023/10/02 03:24:51;;;;;;;7.47;4.85;;;;;;;16.10;nan;95668.59;5033134;28;20195;-61
2023/10/02 03:27:21;;;;;;;6.20;5.60;;;;;;;16.01;nan;95674.16;5033795;28;20540;-62
2023/10/02 03:29:50;;;;;;;6.28;4.65;;;;;;;16.09;nan;95663.53;5033645;28;20363;-61
2023/10/02 03:32:16;;;;;;;7.13;5.20;;;;;;;16.07;nan;95662.78;5033032;28;20218;-63
2023/10/02 03:34:48;;;;;;;8.15;4.80;;;;;;;16.02;nan;95665.56;5032229;28;20600;-61
2023/10/02 03:37:21;;;;;;;6.95;4.93;;;;;;;15.97;nan;95667.50;5033635;28;20706;-62
2023/10/02 03:40:00;;;;;;;13.23;5.10;;;;;;;16.13;nan;95668.44;5032558;28;20286;-62
2023/10/02 03:42:30;;;;;;;5.38;4.93;;;;;;;16.13;nan;95663.31;5033285;28;20203;-59
2023/10/02 03:45:00;;;;;;;7.05;5.05;;;;;;;16.07;nan;95662.78;5036267;28;20203;-63
2023/10/02 03:47:30;;;;;;;5.82;5.18;;;;;;;16.00;nan;95662.25;5040417;28;20594;-63
2023/10/02 03:50:01;;;;;;;6.97;4.50;;;;;;;15.93;nan;95663.41;5035182;28;20222;-63
2023/10/02 03:52:30;;;;;;;13.27;5.20;;;;;;;15.77;nan;95659.88;5040380;28;20592;-61
2023/10/02 03:54:59;;;;;;;6.88;4.78;;;;;;;15.71;nan;95660.13;5036293;28;20195;-61
2023/10/02 03:57:47;;;;;;;5.43;5.03;;;;;;;15.60;nan;95669.09;5037021;28;20203;-59
2023/10/02 04:00:18;;;;;;;4.85;4.45;;;;;;;15.69;nan;95672.19;5032060;28;20206;-63
2023/10/02 04:02:45;;;;;;;15.55;11.43;;;;;;;15.65;nan;95674.88;5031224;28;20266;-62
2023/10/02 04:05:30;;;;;;;10.93;7.90;;;;;;;15.63;nan;95678.41;5033090;28;20198;-62
2023/10/02 04:08:12;;;;;;;10.18;5.55;;;;;;;15.52;nan;95680.56;5031659;28;20206;-61
2023/10/02 04:10:51;;;;;;;4.88;4.38;;;;;;;15.52;nan;95676.28;5033892;28;20192;-60
2023/10/02 04:13:20;;;;;;;8.52;5.05;;;;;;;15.60;nan;95687.03;5035450;28;20210;-62
2023/10/02 04:15:49;;;;;;;5.47;4.97;;;;;;;15.71;nan;95689.16;5030591;28;20257;-61
2023/10/02 04:18:45;;;;;;;10.20;4.85;;;;;;;15.84;nan;95692.00;5039666;28;20294;-62
2023/10/02 04:21:09;;;;;;;8.15;4.47;;;;;;;15.70;nan;95695.19;5036910;28;20209;-62
2023/10/02 04:23:40;;;;;;;5.47;4.30;;;;;;;15.63;nan;95692.03;5036467;28;20224;-62
2023/10/02 04:26:07;;;;;;;9.43;4.63;;;;;;;15.73;nan;95694.22;5042901;28;20261;-62
2023/10/02 04:28:49;;;;;;;7.40;5.15;;;;;;;15.60;nan;95704.97;5034768;28;20246;-62
2023/10/02 04:31:21;;;;;;;14.77;10.02;;;;;;;15.62;nan;95698.06;5038169;28;20318;-61
2023/10/02 04:33:52;;;;;;;6.60;5.93;;;;;;;15.60;nan;95707.53;5038981;28;20568;-62
2023/10/02 04:36:28;;;;;;;8.80;4.88;;;;;;;15.75;nan;95718.03;5039327;28;20219;-61
2023/10/02 04:38:57;;;;;;;22.08;12.65;;;;;;;15.75;nan;95712.91;5039892;28;20217;-61
2023/10/02 04:41:26;;;;;;;17.60;11.32;;;;;;;15.58;nan;95717.06;5037433;28;20233;-62
2023/10/02 04:43:57;;;;;;;7.43;5.90;;;;;;;15.75;nan;95712.91;5041174;28;20199;-61
2023/10/02 04:46:28;;;;;;;12.30;5.00;;;;;;;15.79;nan;95717.03;5037670;28;20222;-60
2023/10/02 04:48:59;;;;;;;12.25;4.75;;;;;;;15.90;nan;95715.63;5037738;28;20612;-61
2023/10/02 04:51:28;;;;;;;7.32;4.53;;;;;;;16.03;nan;95723.63;5036677;28;20258;-61
2023/10/02 04:53:57;;;;;;;5.28;4.40;;;;;;;16.13;nan;95718.91;5037330;28;20205;-63
2023/10/02 04:56:24;;;;;;;6.95;4.72;;;;;;;16.24;nan;95720.09;5038334;28;20199;-62
2023/10/02 04:58:51;;;;;;;6.85;4.72;;;;;;;16.28;nan;95718.25;5043219;28;20210;-62
2023/10/02 05:01:34;;;;;;;6.60;4.28;;;;;;;16.40;nan;95717.66;5040240;28;20659;-62
2023/10/02 05:04:03;;;;;;;6.65;4.97;;;;;;;16.52;nan;95731.69;5044776;28;20296;-62
2023/10/02 05:06:52;;;;;;;7.00;4.38;;;;;;;16.69;nan;95718.91;5043934;28;20684;-62
2023/10/02 05:09:25;;;;;;;11.52;4.68;;;;;;;16.85;nan;95724.97;5038131;28;20254;-62
2023/10/02 05:12:03;;;;;;;5.22;4.18;;;;;;;16.96;nan;95727.03;5040402;28;20298;-62
2023/10/02 05:14:33;;;;;;;7.10;4.25;;;;;;;16.99;nan;95717.47;5038273;28;20215;-63
2023/10/02 05:20:00;;;;;;;4.90;4.35;;;;;;;16.80;nan;95724.38;5032367;28;20260;-62
2023/10/02 05:22:29;;;;;;;8.55;5.22;;;;;;;16.95;nan;95721.06;5043944;28;20293;-62
2023/10/02 05:24:59;;;;;;;6.45;4.32;;;;;;;17.04;nan;95731.81;5040554;28;20641;-61
2023/10/02 05:27:30;;;;;;;8.48;4.60;;;;;;;17.24;nan;95726.53;5038691;28;20333;-63
2023/10/02 05:29:58;;;;;;;4.95;4.55;;;;;;;17.28;nan;95734.03;5035630;28;20224;-62
2023/10/02 05:32:29;;;;;;;8.15;4.32;;;;;;;17.55;nan;95731.81;5036936;28;20211;-61
2023/10/02 05:35:04;;;;;;;6.80;4.45;;;;;;;17.54;nan;95732.72;5036110;28;20206;-62
2023/10/02 05:37:32;;;;;;;10.13;3.90;;;;;;;17.79;nan;95734.91;5033492;28;20214;-62
2023/10/02 05:40:37;;;;;;;8.23;4.38;;;;;;;18.07;nan;95734.28;5033732;28;20285;-62
2023/10/02 05:43:09;;;;;;;6.10;4.03;;;;;;;18.22;nan;95737.84;5034872;28;20222;-62
2023/10/02 05:45:39;;;;;;;4.50;4.10;;;;;;;18.18;nan;95734.59;5036557;28;20203;-62
2023/10/02 05:48:12;;;;;;;7.43;3.85;;;;;;;18.11;nan;95742.69;5036437;28;20200;-61
2023/10/02 05:50:47;;;;;;;7.80;3.95;;;;;;;17.81;nan;95737.41;5037697;28;20724;-62
2023/10/02 05:53:15;;;;;;;14.55;4.40;;;;;;;17.62;nan;95733.16;5036732;28;20200;-61
2023/10/02 05:56:06;;;;;;;7.05;3.75;;;;;;;17.73;nan;95749.81;5038945;28;20220;-61
2023/10/02 05:58:33;;;;;;;4.22;3.30;;;;;;;17.69;nan;95744.00;5043409;28;20203;-61
2023/10/02 06:01:03;;;;;;;10.85;4.18;;;;;;;17.79;nan;95749.53;5043779;28;20231;-62
2023/10/02 06:03:34;;;;;;;4.07;3.75;;;;;;;17.71;nan;95736.22;5043915;28;20242;-62
2023/10/02 06:06:17;;;;;;;6.15;4.18;;;;;;;17.81;nan;95747.69;5039159;28;20304;-61
2023/10/02 06:08:49;;;;;;;5.25;3.83;;;;;;;17.73;nan;95742.09;5037207;28;20202;-62
2023/10/02 06:11:32;;;;;;;4.95;3.88;;;;;;;17.85;nan;95752.59;5038602;28;20221;-61
2023/10/02 06:14:09;;;;;;;5.82;4.05;;;;;;;17.89;nan;95750.69;5033948;28;20211;-62
2023/10/02 06:16:37;;;;;;;10.98;4.55;;;;;;;18.01;nan;95762.94;5035667;28;20234;-61
2023/10/02 06:19:06;;;;;;;7.13;4.53;;;;;;;18.07;nan;95754.88;5034578;28;20666;-61
2023/10/02 06:21:45;;;;;;;4.78;3.75;;;;;;;18.26;nan;95757.34;5034922;28;20200;-63
2023/10/02 06:24:13;;;;;;;5.13;3.75;;;;;;;18.96;nan;95761.28;5030869;28;20207;-62
2023/10/02 06:26:49;;;;;;;5.82;3.83;;;;;;;20.18;nan;95754.22;5041370;28;20296;-61
2023/10/02 06:29:22;;;;;;;9.00;4.03;;;;;;;22.27;nan;95763.09;5038904;28;20246;-62
2023/10/02 06:31:58;;;;;;;5.20;4.03;;;;;;;24.29;nan;95755.34;5037520;28;20234;-63
2023/10/02 06:34:36;;;;;;;5.35;4.07;;;;;;;24.65;nan;95761.25;5040018;28;20601;-63
2023/10/02 06:37:08;;;;;;;6.38;4.20;;;;;;;23.92;nan;95774.63;5037746;28;20733;-61
2023/10/02 06:39:38;;;;;;;4.43;4.03;;;;;;;22.73;nan;95771.13;5038407;28;20743;-62
2023/10/02 06:42:05;;;;;;;5.88;4.47;;;;;;;21.79;nan;95774.97;5035258;28;20215;-61
2023/10/02 06:44:41;;;;;;;4.38;3.72;;;;;;;21.26;nan;95778.50;5032785;28;20641;-62
2023/10/02 06:47:13;;;;;;;4.68;3.30;;;;;;;20.94;nan;95781.34;5035126;28;20697;-61
2023/10/02 06:49:41;;;;;;;6.95;3.80;;;;;;;20.74;nan;95774.03;5035628;28;20220;-61
2023/10/02 06:52:16;;;;;;;4.43;4.03;;;;;;;20.76;nan;95771.34;5039689;28;20242;-62
2023/10/02 06:54:44;;;;;;;4.68;3.95;;;;;;;20.81;nan;95777.88;5037983;28;20222;-61
2023/10/02 06:57:13;;;;;;;4.47;3.25;;;;;;;20.85;nan;95763.00;5036926;28;20253;-62
2023/10/02 06:59:51;;;;;;;3.97;3.67;;;;;;;20.87;nan;95785.25;5042209;28;20957;-63
2023/10/02 07:02:19;;;;;;;7.78;4.10;;;;;;;20.84;nan;95788.00;5033191;28;20219;-61
2023/10/02 07:04:47;;;;;;;4.78;4.38;;;;;;;20.85;nan;95787.09;5034621;28;20203;-61
2023/10/02 07:07:17;;;;;;;5.68;4.18;;;;;;;21.17;nan;95781.66;5035899;28;20203;-61
2023/10/02 07:09:48;;;;;;;8.07;4.68;;;;;;;22.14;nan;95777.84;5035856;28;20635;-62
2023/10/02 07:12:14;;;;;;;5.90;4.85;;;;;;;23.12;nan;95789.16;5038804;28;20214;-62
2023/10/02 07:14:43;;;;;;;4.90;3.97;;;;;;;23.38;nan;95798.50;5040904;28;20261;-63
2023/10/02 07:17:17;;;;;;;10.13;4.45;;;;;;;23.78;nan;95782.59;5044572;28;20203;-62
2023/10/02 07:19:49;;;;;;;6.90;3.47;;;;;;;24.20;nan;95784.59;5040764;28;20204;-63
2023/10/02 07:22:25;;;;;;;7.97;4.25;;;;;;;24.65;nan;95793.25;5040348;28;20211;-62
2023/10/02 07:24:56;;;;;;;4.90;4.47;;;;;;;24.96;nan;95777.88;5042235;28;20738;-66
2023/10/02 07:27:27;;;;;;;9.43;5.70;;;;;;;24.91;nan;95780.81;5035577;28;20458;-62
2023/10/02 07:29:55;;;;;;;8.65;5.00;;;;;;;24.59;nan;95785.94;5035720;28;20293;-63
2023/10/02 07:32:23;;;;;;;6.38;4.57;;;;;;;24.02;nan;95786.78;5032046;28;20223;-61
2023/10/02 07:34:51;;;;;;;12.00;4.15;;;;;;;23.76;nan;95787.13;5037117;28;20747;-63
2023/10/02 07:37:24;;;;;;;7.05;3.72;;;;;;;24.20;nan;95775.97;5034551;28;20234;-63
2023/10/02 07:39:56;;;;;;;8.57;3.42;;;;;;;25.27;nan;95779.66;5033900;28;20207;-63
2023/10/02 07:42:28;;;;;;;5.68;3.83;;;;;;;26.14;nan;95782.13;5036214;28;20686;-63
2023/10/02 07:44:56;;;;;;;4.30;3.60;;;;;;;27.68;nan;95780.00;5032649;28;20238;-62
2023/10/02 07:47:23;;;;;;;3.72;3.33;;;;;;;30.53;nan;95773.50;5034648;28;20220;-61
2023/10/02 07:49:52;;;;;;;5.15;3.45;;;;;;;33.08;nan;95766.19;5035247;28;20525;-62
2023/10/02 07:55:01;;;;;;;5.03;3.42;;;;;;;36.45;nan;95771.56;5030282;28;20210;-63
2023/10/02 07:57:30;;;;;;;3.95;3.65;;;;;;;37.35;nan;95762.63;5032355;28;20257;-61
2023/10/02 07:59:58;;;;;;;4.53;3.55;;;;;;;37.84;nan;95766.81;5038792;28;20206;-62
2023/10/02 08:02:30;;;;;;;4.30;3.85;;;;;;;38.15;nan;95769.69;5039354;28;20199;-62
2023/10/02 08:04:59;;;;;;;9.20;4.22;;;;;;;38.20;nan;95772.53;5033184;28;20207;-62
2023/10/02 08:07:28;;;;;;;9.88;4.38;;;;;;;38.08;nan;95771.53;5034934;28;20200;-64
2023/10/02 08:09:57;;;;;;;6.05;3.42;;;;;;;37.69;nan;95759.84;5032347;28;20708;-64
2023/10/02 08:12:30;;;;;;;6.18;4.10;;;;;;;37.86;nan;95770.09;5034152;28;20692;-62
2023/10/02 08:15:04;;;;;;;5.70;3.72;;;;;;;37.67;nan;95769.84;5037987;28;20585;-62
2023/10/02 08:20:16;;;;;;;5.50;4.68;;;;;;;36.93;nan;95769.78;5033146;28;20195;-63
2023/10/02 08:22:45;;;;;;;9.85;4.95;;;;;;;36.73;nan;95768.88;5033935;28;20287;-67
2023/10/02 08:25:14;;;;;;;25.80;20.38;;;;;;;36.24;nan;95759.16;5035569;28;20198;-71
2023/10/02 08:27:41;;;;;;;8.68;4.75;;;;;;;35.72;nan;95759.53;5034502;28;20227;-68
2023/10/02 08:30:19;;;;;;;4.13;3.42;;;;;;;35.30;nan;95765.66;5031503;28;20219;-67
2023/10/02 08:32:46;;;;;;;6.65;3.58;;;;;;;34.46;nan;95763.34;5031668;28;20205;-69
2023/10/02 08:35:13;;;;;;;10.30;4.05;;;;;;;33.76;nan;95760.97;5033300;28;20210;-67
2023/10/02 08:37:41;;;;;;;6.28;4.40;;;;;;;33.43;nan;95773.56;5035804;28;20207;-68
2023/10/02 08:40:10;;;;;;;10.73;4.07;;;;;;;32.77;nan;95774.06;5034016;28;20196;-67
2023/10/02 08:42:46;;;;;;;7.35;4.25;;;;;;;32.13;nan;95765.31;5030720;28;20473;-68
2023/10/02 08:45:18;;;;;;;4.75;3.70;;;;;;;31.84;nan;95770.28;5031637;28;20200;-66
2023/10/02 08:47:47;;;;;;;4.22;3.90;;;;;;;31.41;nan;95765.16;5034003;28;20731;-68
2023/10/02 08:50:14;;;;;;;10.13;4.63;;;;;;;30.55;nan;95758.41;5033967;28;20277;-67
2023/10/02 08:52:47;;;;;;;6.13;4.00;;;;;;;29.99;nan;95765.78;5036617;28;20555;-68
2023/10/02 08:55:36;;;;;;;6.63;3.30;;;;;;;29.49;nan;95762.91;5032940;28;20214;-68
2023/10/02 08:58:15;;;;;;;7.60;3.42;;;;;;;28.84;nan;95767.47;5034204;28;20645;-69
2023/10/02 09:01:06;;;;;;;9.75;3.95;;;;;;;28.48;nan;95765.66;5036795;28;20630;-68
2023/10/02 09:03:41;;;;;;;5.68;4.13;;;;;;;27.96;nan;95760.03;5037205;28;20212;-69
2023/10/02 09:11:34;;;;;;;5.57;4.47;;;;;;;25.99;nan;95768.59;5035249;28;20234;-72
2023/10/02 09:14:16;;;;;;;4.63;4.20;;;;;;;25.63;nan;95742.06;5042168;28;20201;-70
2023/10/02 09:16:45;;;;;;;10.27;4.65;;;;;;;25.38;nan;95752.81;5034830;28;20728;-73
2023/10/02 09:21:53;;;;;;;9.23;5.50;;;;;;;25.05;nan;95749.34;5040137;28;20195;-70
2023/10/02 09:24:21;;;;;;;11.23;4.93;;;;;;;25.09;nan;95748.16;5030342;28;20207;-68
2023/10/02 09:26:49;;;;;;;55.28;34.42;;;;;;;25.24;nan;95743.50;5035202;28;20935;-67
2023/10/02 09:29:19;;;;;;;7.63;6.68;;;;;;;25.37;nan;95753.75;5034097;28;20253;-72
2023/10/02 09:31:47;;;;;;;8.00;5.70;;;;;;;25.42;nan;95749.00;5037654;28;20227;-71
2023/10/02 09:34:16;;;;;;;11.40;5.75;;;;;;;25.46;nan;95745.19;5038686;28;20770;-69
2023/10/02 09:36:52;;;;;;;12.25;5.30;;;;;;;25.28;nan;95747.50;5040027;28;20207;-70
2023/10/02 09:39:36;;;;;;;7.38;4.43;;;;;;;25.21;nan;95742.94;5040962;28;20206;-71
2023/10/02 09:42:07;;;;;;;11.60;4.70;;;;;;;25.03;nan;95743.44;5038157;28;21015;-71
2023/10/02 09:44:42;;;;;;;9.23;4.78;;;;;;;25.04;nan;95744.28;5036101;28;20261;-69
2023/10/02 09:47:09;;;;;;;7.72;4.13;;;;;;;25.04;nan;95736.47;5036412;28;20596;-71
2023/10/02 09:49:43;;;;;;;9.50;4.30;;;;;;;25.03;nan;95738.25;5044011;28;20404;-69
2023/10/02 09:52:15;;;;;;;5.57;4.60;;;;;;;25.04;nan;95733.88;5045590;28;20228;-71
2023/10/02 09:54:53;;;;;;;7.25;4.65;;;;;;;24.95;nan;95735.47;5037728;28;20211;-68
2023/10/02 09:57:29;;;;;;;5.40;4.78;;;;;;;24.87;nan;95739.56;5038568;28;20199;-70
2023/10/02 09:59:57;;;;;;;9.10;4.93;;;;;;;24.85;nan;95738.88;5036705;28;20654;-71
2023/10/02 10:08:28;;;;;;;8.30;5.00;;;;;;;24.85;nan;95742.28;5037210;28;20256;-72
2023/10/02 10:10:57;;;;;;;8.60;4.75;;;;;;;24.92;nan;95733.06;5033147;28;20223;-72
2023/10/02 10:13:32;;;;;;;5.28;4.72;;;;;;;24.94;nan;95743.34;5038739;28;20253;-70
2023/10/02 10:16:35;;;;;;;6.60;4.00;;;;;;;24.83;nan;95741.59;5033271;28;20346;-71
2023/10/02 10:19:27;;;;;;;7.05;4.40;;;;;;;24.68;nan;95738.44;5034773;28;20207;-71
2023/10/02 10:21:56;;;;;;;5.75;4.57;;;;;;;24.67;nan;95735.97;5027002;28;20286;-70
2023/10/02 10:24:33;;;;;;;6.88;4.63;;;;;;;24.68;nan;95727.22;5032077;28;20310;-72
2023/10/02 10:26:59;;;;;;;4.72;4.32;;;;;;;24.73;nan;95725.09;5033684;28;20238;-70
2023/10/02 10:29:41;;;;;;;7.28;4.80;;;;;;;24.66;nan;95721.31;5033359;28;20225;-70
2023/10/02 10:32:18;;;;;;;6.07;4.38;;;;;;;24.61;nan;95713.88;5041755;28;20226;-70
2023/10/02 10:35:14;;;;;;;6.35;4.80;;;;;;;24.50;nan;95705.28;5041798;28;20214;-71
2023/10/02 10:37:46;;;;;;;8.50;5.03;;;;;;;24.53;nan;95702.41;5035674;28;20206;-71
2023/10/02 10:40:44;;;;;;;8.40;4.78;;;;;;;24.51;nan;95709.50;5035125;28;20203;-69
2023/10/02 10:43:12;;;;;;;6.53;4.38;;;;;;;24.51;nan;95691.31;5037063;28;20211;-71
2023/10/02 10:45:40;;;;;;;6.55;5.18;;;;;;;24.40;nan;95693.00;5035671;28;20224;-69
2023/10/02 10:48:18;;;;;;;9.27;5.35;;;;;;;24.48;nan;95695.00;5035243;28;20202;-69
2023/10/02 10:50:56;;;;;;;9.25;5.93;;;;;;;24.63;nan;95688.59;5038115;28;20224;-70
2023/10/02 10:53:26;;;;;;;6.90;5.30;;;;;;;24.72;nan;95697.44;5032993;28;20235;-70
2023/10/02 10:55:54;;;;;;;6.35;4.18;;;;;;;24.81;nan;95683.69;5035590;28;20587;-68
2023/10/02 10:58:31;;;;;;;10.23;5.10;;;;;;;24.74;nan;95685.16;5037166;28;20298;-70
2023/10/02 11:01:00;;;;;;;8.50;5.78;;;;;;;24.73;nan;95678.28;5033306;28;20252;-70
2023/10/02 11:03:27;;;;;;;8.40;5.75;;;;;;;24.66;nan;95679.72;5037267;28;20203;-72
2023/10/02 11:06:01;;;;;;;7.60;5.35;;;;;;;24.62;nan;95675.72;5038893;28;20674;-69
2023/10/02 11:08:30;;;;;;;5.47;4.85;;;;;;;24.66;nan;95664.13;5033805;28;20199;-70
2023/10/02 11:11:06;;;;;;;7.47;5.00;;;;;;;24.47;nan;95671.72;5036303;28;20224;-71
2023/10/02 11:16:34;;;;;;;11.85;5.85;;;;;;;24.49;nan;95675.03;5032901;28;20196;-69
2023/10/02 11:19:14;;;;;;;9.10;5.60;;;;;;;24.57;nan;95667.44;5037745;28;20230;-69
2023/10/02 11:21:48;;;;;;;9.43;5.28;;;;;;;24.66;nan;95661.53;5042787;28;20277;-69
2023/10/02 11:24:21;;;;;;;5.80;5.30;;;;;;;24.60;nan;95659.41;5042307;28;20203;-70
2023/10/02 11:26:47;;;;;;;10.77;6.85;;;;;;;24.64;nan;95658.22;5039653;28;20246;-71
2023/10/02 11:29:20;;;;;;;7.18;4.75;;;;;;;24.56;nan;95650.19;5031555;28;20223;-71
2023/10/02 11:32:18;;;;;;;5.03;4.20;;;;;;;24.35;nan;95653.56;5033128;28;20731;-70
2023/10/02 11:34:46;;;;;;;5.18;3.85;;;;;;;24.24;nan;95656.19;5038162;28;20587;-69
2023/10/02 11:37:13;;;;;;;7.75;5.03;;;;;;;24.21;nan;95652.97;5033528;28;20235;-69
2023/10/02 11:39:39;;;;;;;6.25;4.88;;;;;;;24.15;nan;95658.63;5032783;28;20300;-71
2023/10/02 11:42:07;;;;;;;5.65;4.45;;;;;;;24.11;nan;95660.63;5035588;28;20207;-70
2023/10/02 11:44:34;;;;;;;6.38;4.50;;;;;;;23.95;nan;95649.78;5036208;28;20231;-70
2023/10/02 11:47:02;;;;;;;7.93;3.97;;;;;;;23.88;nan;95654.63;5039492;28;20748;-71
2023/10/02 11:49:29;;;;;;;5.93;4.35;;;;;;;23.88;nan;95643.41;5038880;28;20273;-69
2023/10/02 11:52:00;;;;;;;4.78;4.25;;;;;;;23.81;nan;95648.25;5039191;28;20222;-71
2023/10/02 11:54:27;;;;;;;3.92;3.60;;;;;;;24.04;nan;95649.06;5034906;28;20209;-71
2023/10/02 11:56:53;;;;;;;6.20;4.45;;;;;;;24.01;nan;95655.31;5037638;28;20757;-69
2023/10/02 11:59:20;;;;;;;4.50;4.10;;;;;;;24.04;nan;95649.06;5039601;28;20211;-68
2023/10/02 12:01:47;;;;;;;5.53;4.00;;;;;;;24.05;nan;95650.72;5038709;28;20222;-68
2023/10/02 12:04:15;;;;;;;6.03;4.10;;;;;;;24.05;nan;95637.72;5035948;28;20206;-69
2023/10/02 12:06:42;;;;;;;5.00;4.50;;;;;;;24.03;nan;95642.22;5037081;28;20231;-71
2023/10/02 12:09:17;;;;;;;7.25;4.68;;;;;;;23.81;nan;95642.22;5035324;28;20565;-70
2023/10/02 12:11:44;;;;;;;4.28;3.85;;;;;;;23.86;nan;95640.09;5034910;28;20226;-69
2023/10/02 12:14:11;;;;;;;4.72;4.28;;;;;;;23.86;nan;95634.91;5033025;28;20299;-71
2023/10/02 12:16:38;;;;;;;4.57;4.13;;;;;;;23.94;nan;95633.38;5032276;28;20690;-70
2023/10/02 12:19:08;;;;;;;5.03;4.50;;;;;;;24.12;nan;95636.31;5027163;28;20290;-70
2023/10/02 12:21:37;;;;;;;5.00;4.20;;;;;;;24.14;nan;95638.78;5039490;28;20203;-68
2023/10/02 12:24:07;;;;;;;6.00;5.15;;;;;;;24.19;nan;95649.66;5035238;28;20881;-70
2023/10/02 12:26:34;;;;;;;4.93;4.47;;;;;;;24.15;nan;95636.09;5035190;28;20821;-71
2023/10/02 12:29:02;;;;;;;7.28;4.57;;;;;;;24.17;nan;95644.59;5033175;28;20632;-72
2023/10/02 12:31:31;;;;;;;8.80;4.68;;;;;;;23.96;nan;95639.28;5033982;28;20231;-70
2023/10/02 12:33:58;;;;;;;5.28;4.78;;;;;;;24.12;nan;95638.91;5030324;28;20445;-71
2023/10/02 12:36:26;;;;;;;7.05;5.53;;;;;;;24.11;nan;95639.88;5031512;28;20249;-70
2023/10/02 12:38:54;;;;;;;6.07;4.43;;;;;;;23.77;nan;95643.41;5031759;28;20214;-71
2023/10/02 12:41:22;;;;;;;7.60;4.63;;;;;;;23.59;nan;95628.28;5035797;28;20206;-72
2023/10/02 12:43:55;;;;;;;5.78;5.05;;;;;;;23.54;nan;95635.59;5042868;28;20208;-69
2023/10/02 12:46:23;;;;;;;7.68;4.90;;;;;;;23.35;nan;95636.13;5045421;28;20203;-70
2023/10/02 12:48:50;;;;;;;8.25;4.70;;;;;;;23.03;nan;95624.72;5047628;28;20195;-69
2023/10/02 12:51:18;;;;;;;6.80;4.55;;;;;;;22.85;nan;95632.09;5042590;28;20276;-69
2023/10/02 12:53:46;;;;;;;5.80;4.80;;;;;;;22.86;nan;95643.28;5041077;28;20195;-70